Time;durP1;ratioP1;P1;durP2;ratioP2;P2;SDS_P1;SDS_P2;PMS_P1;PMS_P2;Temp;Humidity;BMP_temperature;BMP_pressure;BME280_temperature;BME280_humidity;BME280_pressure;Samples;Min_cycle;Max_cycle;Signal;HPM_P1;HPM_P2
2022/01/20 00:02:02;;;;;;;23.55;3.83;;;;;;;1.85;95.95;102415.25;5015519;28;20393;-75
2022/01/20 00:04:43;;;;;;;25.40;3.50;;;;;;;1.84;96.22;102407.22;5023078;28;20022;-76
2022/01/20 00:28:18;;;;;;;16.83;3.20;;;;;;;1.86;95.58;102417.03;5027334;28;20025;-75
2022/01/20 00:38:19;;;;;;;14.10;3.38;;;;;;;2.06;96.05;102419.50;5016316;28;20044;-76
2022/01/20 00:40:45;;;;;;;22.20;3.53;;;;;;;2.09;96.11;102421.25;5019138;28;20485;-75
2022/01/20 00:43:10;;;;;;;19.88;3.60;;;;;;;2.04;96.03;102432.91;5026401;28;20088;-76
2022/01/20 00:45:35;;;;;;;23.92;3.05;;;;;;;1.98;95.58;102433.00;5036937;28;20033;-76
2022/01/20 00:48:01;;;;;;;21.35;3.53;;;;;;;1.95;95.66;102424.97;5019338;28;20465;-75
2022/01/20 00:50:26;;;;;;;20.75;3.05;;;;;;;1.94;95.98;102423.19;5014000;28;20021;-75
2022/01/20 00:52:51;;;;;;;22.25;4.00;;;;;;;1.95;96.02;102414.22;5022884;28;20056;-76
2022/01/20 00:55:18;;;;;;;15.75;3.15;;;;;;;1.98;96.36;102411.53;5015754;28;20478;-76
2022/01/20 00:57:44;;;;;;;18.15;4.00;;;;;;;2.04;96.46;102422.19;4990797;28;1073213;-75
2022/01/20 01:00:12;;;;;;;17.02;3.13;;;;;;;2.06;96.19;102442.78;5017320;28;20041;-75
2022/01/20 01:02:37;;;;;;;13.75;3.22;;;;;;;2.06;96.08;102438.28;5016360;28;20042;-76
2022/01/20 01:05:03;;;;;;;21.08;3.47;;;;;;;2.10;96.39;102431.06;5014641;28;20076;-75
2022/01/20 01:10:13;;;;;;;17.15;2.85;;;;;;;2.17;96.27;102440.84;5015385;28;20041;-77
2022/01/20 01:12:48;;;;;;;13.48;3.55;;;;;;;2.17;96.30;102443.53;5015096;28;20075;-75
2022/01/20 01:15:24;;;;;;;14.88;2.60;;;;;;;2.12;96.05;102437.31;5018446;28;20492;-76
2022/01/20 01:20:56;;;;;;;16.48;3.47;;;;;;;2.11;95.89;102454.34;5018790;28;20040;-74
2022/01/20 01:23:19;;;;;;;15.25;2.47;;;;;;;2.10;95.77;102449.84;5024403;28;20034;-75
2022/01/20 01:25:44;;;;;;;19.25;2.90;;;;;;;2.08;95.76;102447.19;5017425;28;20366;-76
2022/01/20 01:28:09;;;;;;;17.92;2.33;;;;;;;2.04;95.82;102449.03;5011801;28;20056;-76
2022/01/20 01:33:21;;;;;;;17.88;2.90;;;;;;;1.99;95.70;102458.03;5022028;28;20112;-76
2022/01/20 01:35:55;;;;;;;22.10;2.78;;;;;;;1.98;95.82;102448.22;5008553;28;20033;-76
2022/01/20 01:38:36;;;;;;;12.18;3.00;;;;;;;1.97;95.89;102443.75;5024743;28;20083;-75
2022/01/20 01:41:12;;;;;;;14.45;2.28;;;;;;;2.01;96.10;102442.81;5020845;28;20033;-75
2022/01/20 01:43:41;;;;;;;14.63;2.38;;;;;;;2.05;96.23;102447.22;5023578;28;20228;-75
2022/01/20 01:46:06;;;;;;;14.30;1.67;;;;;;;2.06;96.35;102445.47;5006189;28;20092;-75
2022/01/20 01:48:31;;;;;;;15.95;2.30;;;;;;;2.09;96.15;102451.66;5023701;28;21112;-75
2022/01/20 01:50:59;;;;;;;10.52;1.83;;;;;;;2.06;95.93;102445.47;5016881;28;20064;-77
2022/01/20 01:53:25;;;;;;;21.48;2.55;;;;;;;2.07;96.04;102440.06;5013401;28;20026;-76
2022/01/20 01:55:50;;;;;;;7.63;2.00;;;;;;;2.06;96.05;102446.34;5017891;28;20025;-76
2022/01/20 01:58:16;;;;;;;20.17;3.50;;;;;;;2.03;96.01;102462.47;5025715;28;20564;-74
2022/01/20 02:00:42;;;;;;;12.45;2.33;;;;;;;1.98;96.05;102449.09;5024942;28;20025;-76
2022/01/20 02:03:08;;;;;;;14.43;2.25;;;;;;;1.98;96.42;102449.09;5019987;28;20038;-75
2022/01/20 02:05:37;;;;;;;19.42;2.50;;;;;;;2.00;96.42;102449.06;5006901;28;20397;-75
2022/01/20 02:18:48;;;;;;;12.75;2.50;;;;;;;2.13;96.57;102445.34;5007881;28;20028;-75
2022/01/20 02:21:14;;;;;;;17.95;3.10;;;;;;;2.15;96.45;102458.78;5006991;28;20041;-76
2022/01/20 02:23:39;;;;;;;9.82;1.90;;;;;;;2.17;96.51;102457.84;5016975;28;20033;-75
2022/01/20 02:26:05;;;;;;;8.52;1.83;;;;;;;2.19;96.76;102461.41;5008887;28;20032;-76
2022/01/20 02:28:30;;;;;;;11.45;2.35;;;;;;;2.28;96.40;102455.00;5009670;28;20068;-76
2022/01/20 02:30:56;;;;;;;19.20;2.03;;;;;;;2.38;96.44;102458.47;5011851;28;20033;-75
2022/01/20 02:33:23;;;;;;;13.38;1.73;;;;;;;2.44;96.18;102453.03;5028044;28;20022;-75
2022/01/20 02:35:52;;;;;;;11.13;1.92;;;;;;;2.45;95.93;102455.69;5019519;28;20462;-76
2022/01/20 02:38:27;;;;;;;12.07;2.75;;;;;;;2.51;96.09;102452.03;5026799;28;20053;-75
2022/01/20 02:46:20;;;;;;;5.50;1.67;;;;;;;2.60;96.04;102438.47;5010635;28;20112;-75
2022/01/20 02:48:45;;;;;;;4.97;1.77;;;;;;;2.60;96.12;102437.59;5020911;28;20033;-75
2022/01/20 02:51:11;;;;;;;10.48;1.92;;;;;;;2.64;96.24;102447.41;5025712;28;20034;-75
2022/01/20 02:53:36;;;;;;;8.23;1.73;;;;;;;2.65;95.85;102447.38;5026711;28;20029;-74
2022/01/20 02:56:01;;;;;;;10.07;1.60;;;;;;;2.64;95.62;102444.72;5019919;28;20033;-74
2022/01/20 02:58:26;;;;;;;14.85;1.80;;;;;;;2.63;95.77;102449.19;5017976;28;20056;-75
2022/01/20 03:00:52;;;;;;;14.77;1.83;;;;;;;2.62;95.90;102439.38;5015061;28;20038;-75
2022/01/20 03:03:17;;;;;;;13.10;1.80;;;;;;;2.60;96.04;102433.09;5008248;28;20032;-76
2022/01/20 03:05:43;;;;;;;9.57;2.47;;;;;;;2.62;95.91;102422.38;5007878;28;20057;-75
2022/01/20 03:08:08;;;;;;;12.80;2.85;;;;;;;2.60;96.14;102432.22;5006465;28;20120;-76
2022/01/20 03:10:33;;;;;;;15.93;1.88;;;;;;;2.55;96.07;102426.91;5005541;28;20034;-75
2022/01/20 03:12:59;;;;;;;5.97;1.35;;;;;;;2.50;96.19;102426.97;5005546;28;20022;-76
2022/01/20 03:15:25;;;;;;;13.38;1.98;;;;;;;2.43;96.04;102441.41;5007130;28;20026;-75
2022/01/20 03:17:50;;;;;;;8.02;1.23;;;;;;;2.40;96.22;102430.69;5006962;28;20391;-75
2022/01/20 03:20:15;;;;;;;4.97;1.77;;;;;;;2.39;96.27;102428.03;5011260;28;20117;-75
2022/01/20 03:22:40;;;;;;;6.60;1.50;;;;;;;2.29;96.14;102411.16;5007094;28;20049;-75
2022/01/20 03:25:06;;;;;;;12.32;2.35;;;;;;;2.29;96.12;102413.84;5013194;28;20547;-75
2022/01/20 03:27:32;;;;;;;12.77;2.22;;;;;;;2.26;96.28;102419.25;5007255;28;20068;-75
2022/01/20 03:29:57;;;;;;;17.55;1.80;;;;;;;2.23;96.42;102419.28;5016418;28;20037;-75
2022/01/20 03:32:22;;;;;;;14.30;2.45;;;;;;;2.21;96.15;102419.31;5019664;28;20428;-75
2022/01/20 03:34:48;;;;;;;13.60;2.75;;;;;;;2.21;96.38;102419.31;5020174;28;20029;-76
2022/01/20 03:37:13;;;;;;;12.15;2.00;;;;;;;2.18;96.32;102418.44;5025722;28;20087;-75
2022/01/20 03:39:39;;;;;;;12.52;1.70;;;;;;;2.19;96.69;102409.47;5024054;28;20045;-75
2022/01/20 03:42:04;;;;;;;12.10;1.70;;;;;;;2.24;96.74;102423.75;5019487;28;20038;-75
2022/01/20 03:44:30;;;;;;;18.60;2.38;;;;;;;2.25;96.68;102420.16;5011196;28;20065;-75
2022/01/20 03:46:57;;;;;;;20.23;3.75;;;;;;;2.30;95.87;102421.00;5017357;28;20029;-75
2022/01/20 03:49:29;;;;;;;6.20;1.80;;;;;;;2.35;96.14;102423.63;5021264;28;20095;-75
2022/01/20 03:51:55;;;;;;;14.18;2.35;;;;;;;2.35;95.86;102427.19;5028935;28;20052;-75
2022/01/20 03:54:20;;;;;;;11.73;1.98;;;;;;;2.34;95.72;102420.03;5025533;28;20025;-74
2022/01/20 03:56:46;;;;;;;10.95;2.88;;;;;;;2.36;95.52;102415.53;5027363;28;20475;-74
2022/01/20 03:59:11;;;;;;;6.20;1.20;;;;;;;2.35;95.82;102411.06;5021580;28;20608;-75
2022/01/20 04:01:36;;;;;;;8.93;2.92;;;;;;;2.33;95.65;102411.97;5010675;28;20176;-75
2022/01/20 04:04:01;;;;;;;7.72;1.60;;;;;;;2.28;95.43;102417.41;5025277;28;20037;-75
2022/01/20 04:06:28;;;;;;;11.52;2.97;;;;;;;2.24;95.61;102416.59;5028016;28;20106;-75
2022/01/20 04:08:54;;;;;;;15.00;1.90;;;;;;;2.19;95.46;102415.75;5028087;28;20108;-75
2022/01/20 04:11:25;;;;;;;10.77;1.60;;;;;;;2.17;95.51;102422.94;5020680;28;20124;-75
2022/01/20 04:13:51;;;;;;;8.90;2.30;;;;;;;2.20;95.72;102435.44;5018380;28;20038;-75
2022/01/20 04:16:24;;;;;;;7.68;2.05;;;;;;;2.20;95.64;102425.59;5009037;28;20038;-74
2022/01/20 04:18:56;;;;;;;14.13;2.13;;;;;;;2.27;95.84;102432.66;5009194;28;20024;-76
2022/01/20 04:21:28;;;;;;;14.85;2.28;;;;;;;2.30;95.54;102435.31;5008780;28;20485;-75
2022/01/20 04:23:56;;;;;;;13.68;1.85;;;;;;;2.34;95.61;102452.28;5010152;28;20493;-75
2022/01/20 04:26:22;;;;;;;11.93;2.08;;;;;;;2.40;95.52;102457.56;5017955;28;20527;-74
2022/01/20 04:28:53;;;;;;;14.65;2.58;;;;;;;2.50;95.29;102477.13;5015718;28;20034;-75
2022/01/20 04:31:19;;;;;;;22.75;2.95;;;;;;;2.70;93.92;102479.53;5018062;28;20028;-75
2022/01/20 04:33:44;;;;;;;8.75;2.20;;;;;;;2.76;94.66;102474.09;5027088;28;20033;-74
2022/01/20 04:36:09;;;;;;;12.07;1.88;;;;;;;2.76;94.80;102463.34;5023803;28;20112;-76
2022/01/20 04:38:35;;;;;;;14.68;2.25;;;;;;;2.79;94.38;102463.28;5017757;28;20017;-74
2022/01/20 04:41:00;;;;;;;13.88;2.00;;;;;;;2.79;93.74;102450.75;5026304;28;20616;-75
2022/01/20 04:43:26;;;;;;;8.05;1.75;;;;;;;2.80;93.74;102447.16;5023050;28;20025;-77
2022/01/20 04:46:01;;;;;;;10.60;2.55;;;;;;;2.79;93.89;102450.75;5009558;28;20033;-75
2022/01/20 04:59:11;;;;;;;10.48;1.50;;;;;;;2.75;93.40;102475.91;5027651;28;20052;-75
2022/01/20 05:01:43;;;;;;;11.32;1.70;;;;;;;2.78;93.73;102481.22;5011974;28;20034;-74
2022/01/20 05:04:08;;;;;;;11.27;1.80;;;;;;;2.78;93.53;102483.03;5023832;28;20033;-76
2022/01/20 05:06:34;;;;;;;10.75;1.20;;;;;;;2.83;93.57;102496.41;5021169;28;20029;-76
2022/01/20 05:08:59;;;;;;;14.88;1.70;;;;;;;2.81;93.32;102500.00;5028702;28;20021;-76
2022/01/20 05:11:24;;;;;;;11.82;2.13;;;;;;;2.81;93.09;102491.94;5019503;28;20033;-75
2022/01/20 05:13:50;;;;;;;15.55;1.90;;;;;;;2.86;93.62;102499.06;5022499;28;20029;-76
2022/01/20 05:16:15;;;;;;;11.15;1.73;;;;;;;2.84;93.56;102496.38;5017738;28;20044;-76
2022/01/20 05:18:40;;;;;;;11.00;1.85;;;;;;;2.83;93.88;102499.97;5026352;28;20040;-76
2022/01/20 05:21:06;;;;;;;6.88;2.00;;;;;;;2.84;94.12;102508.91;5027900;28;20030;-75
2022/01/20 05:23:31;;;;;;;12.27;2.30;;;;;;;2.80;94.05;102500.91;5022994;28;20033;-76
2022/01/20 05:25:56;;;;;;;15.13;2.00;;;;;;;2.84;93.92;102504.44;5014722;28;20035;-76
2022/01/20 05:28:21;;;;;;;12.32;2.35;;;;;;;2.89;94.25;102515.13;5015474;28;20022;-76
2022/01/20 05:30:47;;;;;;;8.45;1.88;;;;;;;2.89;94.02;102517.81;5017616;28;20034;-75
2022/01/20 05:33:12;;;;;;;15.40;2.35;;;;;;;2.88;94.43;102516.03;5028687;28;20052;-76
2022/01/20 05:35:37;;;;;;;22.90;2.38;;;;;;;2.88;94.49;102526.78;5023145;28;20439;-76
2022/01/20 05:38:03;;;;;;;16.90;1.60;;;;;;;2.91;94.93;102529.44;5027632;28;20017;-74
2022/01/20 05:40:29;;;;;;;11.65;1.50;;;;;;;2.90;94.77;102522.28;5025459;28;20037;-75
2022/01/20 05:42:54;;;;;;;9.50;2.00;;;;;;;2.90;93.92;102533.03;5026283;28;20060;-76
2022/01/20 05:45:20;;;;;;;8.20;1.83;;;;;;;2.90;93.85;102546.50;5020431;28;20036;-76
2022/01/20 05:47:48;;;;;;;11.20;2.80;;;;;;;2.89;93.64;102545.59;5021284;28;20124;-76
2022/01/20 05:50:22;;;;;;;11.93;2.00;;;;;;;2.87;93.01;102552.78;5013751;28;20052;-75
2022/01/20 05:52:47;;;;;;;7.15;1.67;;;;;;;2.85;93.39;102553.72;5027473;28;20052;-75
2022/01/20 05:55:19;;;;;;;11.13;1.65;;;;;;;2.83;93.72;102561.78;5022130;28;20454;-75
2022/01/20 05:57:46;;;;;;;7.25;1.60;;;;;;;2.83;93.20;102572.53;5025776;28;20100;-75
2022/01/20 06:00:16;;;;;;;10.90;1.67;;;;;;;2.84;93.04;102573.41;5021718;28;21017;-75
2022/01/20 06:05:33;;;;;;;16.17;2.22;;;;;;;2.84;92.67;102570.72;5026652;28;20094;-75
2022/01/20 06:07:58;;;;;;;6.03;1.60;;;;;;;2.81;92.79;102586.00;5026802;28;20029;-75
2022/01/20 06:10:24;;;;;;;7.00;1.70;;;;;;;2.79;92.59;102576.16;5019054;28;20022;-75
2022/01/20 06:12:49;;;;;;;10.15;1.70;;;;;;;2.77;92.14;102575.31;5027063;28;20025;-75
2022/01/20 06:15:14;;;;;;;14.63;1.67;;;;;;;2.77;91.92;102580.69;5007976;28;20056;-76
2022/01/20 06:17:41;;;;;;;7.85;1.60;;;;;;;2.79;91.76;102586.91;5027793;28;20099;-75
2022/01/20 06:20:08;;;;;;;16.13;1.45;;;;;;;2.78;91.01;102594.09;5014771;28;20034;-75
2022/01/20 06:22:33;;;;;;;9.23;1.75;;;;;;;2.78;90.67;102595.91;5013696;28;20432;-76
2022/01/20 06:24:59;;;;;;;9.40;1.73;;;;;;;2.75;91.06;102598.59;5019297;28;20030;-75
2022/01/20 06:27:24;;;;;;;12.55;2.05;;;;;;;2.71;91.21;102603.16;5011179;28;20033;-75
2022/01/20 06:29:50;;;;;;;11.88;2.70;;;;;;;2.77;90.05;102613.81;5019316;28;20029;-74
2022/01/20 06:32:15;;;;;;;19.10;2.33;;;;;;;2.76;90.06;102608.47;5011100;28;20020;-76
2022/01/20 06:34:40;;;;;;;8.13;1.98;;;;;;;2.77;90.13;102613.81;5008039;28;20537;-75
2022/01/20 06:37:06;;;;;;;9.70;2.40;;;;;;;2.78;89.97;102609.34;5007069;28;20029;-74
2022/01/20 06:39:31;;;;;;;11.68;1.88;;;;;;;2.75;89.38;102612.03;5007473;28;20041;-76
2022/01/20 06:41:57;;;;;;;17.13;2.30;;;;;;;2.74;88.83;102616.53;5006049;28;20022;-76
2022/01/20 06:44:22;;;;;;;12.05;1.77;;;;;;;2.74;89.31;102616.53;5009831;28;20037;-75
2022/01/20 06:46:51;;;;;;;9.57;2.38;;;;;;;2.72;88.82;102623.72;5010253;28;20033;-75
2022/01/20 06:49:18;;;;;;;18.17;2.63;;;;;;;2.70;89.17;102621.97;5021550;28;20036;-76
2022/01/20 06:51:44;;;;;;;17.52;2.58;;;;;;;2.68;88.72;102631.84;5023909;28;20045;-73
2022/01/20 06:54:09;;;;;;;23.13;3.08;;;;;;;2.70;87.95;102635.38;5022016;28;20014;-75
2022/01/20 06:56:34;;;;;;;11.10;2.13;;;;;;;2.70;87.90;102640.75;5023954;28;20321;-75
2022/01/20 06:59:00;;;;;;;13.63;3.95;;;;;;;2.68;88.06;102640.78;5021773;28;20054;-76
2022/01/20 07:01:25;;;;;;;17.85;2.45;;;;;;;2.68;88.33;102642.59;5021059;28;20036;-75
2022/01/20 07:03:50;;;;;;;11.18;2.42;;;;;;;2.65;87.87;102656.06;5017590;28;20092;-74
2022/01/20 07:06:16;;;;;;;21.92;3.38;;;;;;;2.63;87.65;102661.44;5023688;28;20022;-76
2022/01/20 07:08:41;;;;;;;18.10;2.08;;;;;;;2.62;88.17;102658.78;5022552;28;20453;-75
2022/01/20 07:11:06;;;;;;;14.75;2.47;;;;;;;2.61;87.14;102673.09;5022487;28;20032;-75
2022/01/20 07:13:32;;;;;;;13.82;2.63;;;;;;;2.58;86.37;102659.72;5011889;28;20970;-75
2022/01/20 07:15:57;;;;;;;21.02;2.47;;;;;;;2.59;87.56;102661.50;5005810;28;20049;-75
2022/01/20 07:18:22;;;;;;;10.52;1.80;;;;;;;2.57;85.57;102661.53;5014053;28;20560;-75
2022/01/20 07:20:48;;;;;;;12.77;2.30;;;;;;;2.57;85.31;102664.22;5008978;28;20164;-75
2022/01/20 07:23:13;;;;;;;11.20;2.22;;;;;;;2.54;87.39;102670.50;5011115;28;20021;-76
2022/01/20 07:25:38;;;;;;;13.05;2.58;;;;;;;2.49;87.44;102675.03;5022462;28;20800;-75
2022/01/20 07:28:04;;;;;;;13.55;1.90;;;;;;;2.47;87.40;102671.47;5016277;28;20021;-75
2022/01/20 07:30:29;;;;;;;10.48;2.28;;;;;;;2.43;87.90;102675.09;5023886;28;20056;-75
2022/01/20 07:32:54;;;;;;;15.60;2.38;;;;;;;2.41;87.51;102678.69;5027118;28;20477;-75
2022/01/20 07:35:20;;;;;;;10.10;2.58;;;;;;;2.41;87.83;102687.63;5025651;28;20029;-74
2022/01/20 07:37:45;;;;;;;16.38;2.35;;;;;;;2.39;87.87;102692.13;5029006;28;20026;-75
2022/01/20 07:40:11;;;;;;;16.30;2.53;;;;;;;2.37;87.43;102696.59;5027084;28;20034;-74
2022/01/20 07:42:36;;;;;;;24.73;2.55;;;;;;;2.38;87.51;102698.41;5030076;28;20029;-74
2022/01/20 07:45:03;;;;;;;12.55;2.40;;;;;;;2.37;88.31;102699.28;5017731;28;20120;-75
2022/01/20 07:47:28;;;;;;;12.57;2.20;;;;;;;2.39;87.58;102705.56;5027050;28;20497;-74
2022/01/20 07:49:53;;;;;;;11.93;2.85;;;;;;;2.41;84.85;102706.41;5018048;28;20145;-75
2022/01/20 07:52:19;;;;;;;10.98;2.05;;;;;;;2.42;85.25;102701.94;5024642;28;20465;-76
2022/01/20 07:54:44;;;;;;;9.77;2.15;;;;;;;2.43;84.63;102711.81;5025414;28;20033;-74
2022/01/20 07:57:10;;;;;;;15.82;3.05;;;;;;;2.45;83.63;102712.66;5024922;28;20057;-74
2022/01/20 07:59:35;;;;;;;14.10;2.25;;;;;;;2.46;83.91;102715.31;5016178;28;20120;-74
2022/01/20 08:02:01;;;;;;;13.90;2.95;;;;;;;2.43;82.93;102698.38;5025574;28;20029;-75
2022/01/20 08:04:26;;;;;;;21.17;2.28;;;;;;;2.48;82.05;102704.59;5022670;28;20029;-76
2022/01/20 08:06:51;;;;;;;7.60;1.88;;;;;;;2.55;81.25;102719.72;5026228;28;20032;-74
2022/01/20 08:09:17;;;;;;;21.63;3.40;;;;;;;2.57;82.00;102725.13;5025167;28;20025;-76
2022/01/20 08:11:42;;;;;;;14.50;2.88;;;;;;;2.52;83.81;102723.34;5027727;28;20024;-75
2022/01/20 08:14:08;;;;;;;12.57;2.03;;;;;;;2.52;83.97;102735.91;5026451;28;20100;-74
2022/01/20 08:16:34;;;;;;;15.63;3.92;;;;;;;2.51;82.97;102734.09;5020839;28;20501;-75
2022/01/20 08:18:59;;;;;;;11.20;2.45;;;;;;;2.54;84.21;102739.44;5021827;28;20025;-75
2022/01/20 08:21:24;;;;;;;14.68;2.97;;;;;;;2.50;84.54;102751.13;5023181;28;20225;-75
2022/01/20 08:23:50;;;;;;;15.55;2.63;;;;;;;2.47;84.10;102735.94;5015549;28;20119;-75
2022/01/20 08:26:15;;;;;;;11.52;2.85;;;;;;;2.51;83.34;102748.41;5025049;28;20120;-77
2022/01/20 08:28:41;;;;;;;12.82;2.70;;;;;;;2.54;84.44;102752.88;5026199;28;20056;-75
2022/01/20 08:31:06;;;;;;;17.23;2.53;;;;;;;2.53;85.00;102759.16;5028270;28;20033;-75
2022/01/20 08:33:31;;;;;;;9.35;2.15;;;;;;;2.54;85.20;102756.47;5025315;28;20587;-76
2022/01/20 08:35:56;;;;;;;11.48;2.70;;;;;;;2.55;85.29;102765.41;5018531;28;20044;-77
2022/01/20 08:38:22;;;;;;;17.05;3.10;;;;;;;2.53;85.48;102761.84;5028508;28;20028;-75
2022/01/20 08:40:47;;;;;;;18.80;3.10;;;;;;;2.54;85.31;102758.25;5021320;28;20029;-74
2022/01/20 08:43:13;;;;;;;15.10;2.63;;;;;;;2.57;86.54;102773.47;5021111;28;20492;-75
2022/01/20 08:45:39;;;;;;;13.20;2.40;;;;;;;2.55;86.44;102768.09;5024207;28;20036;-74
2022/01/20 08:48:04;;;;;;;16.50;2.40;;;;;;;2.55;86.33;102773.47;5025229;28;20055;-75
2022/01/20 08:50:32;;;;;;;11.07;1.67;;;;;;;2.56;85.92;102775.25;5013440;28;20034;-77
2022/01/20 08:52:58;;;;;;;17.70;2.42;;;;;;;2.55;85.36;102785.09;5020063;28;20025;-74
2022/01/20 08:55:26;;;;;;;11.02;1.95;;;;;;;2.54;86.01;102780.63;5022383;28;20052;-75
2022/01/20 08:57:53;;;;;;;12.98;2.28;;;;;;;2.57;85.59;102785.09;5028755;28;20049;-75
2022/01/20 09:00:20;;;;;;;16.30;2.35;;;;;;;2.63;84.49;102773.41;5018823;28;20029;-74
2022/01/20 09:02:45;;;;;;;6.88;1.48;;;;;;;2.66;85.29;102789.47;5025903;28;20795;-76
2022/01/20 09:05:11;;;;;;;14.20;1.75;;;;;;;2.72;84.79;102797.53;5025106;28;20029;-74
2022/01/20 09:07:36;;;;;;;10.43;1.98;;;;;;;2.75;83.04;102794.78;5025948;28;20030;-74
2022/01/20 09:10:07;;;;;;;9.55;1.73;;;;;;;2.78;84.66;102801.03;5016918;28;20099;-77
2022/01/20 09:17:41;;;;;;;8.95;1.65;;;;;;;2.81;85.37;102819.81;5009219;28;20175;-75
2022/01/20 09:20:07;;;;;;;14.40;3.22;;;;;;;2.80;83.31;102820.75;5007772;28;20108;-75
2022/01/20 09:22:32;;;;;;;10.27;1.30;;;;;;;2.84;84.10;102820.69;5015506;28;20022;-75
2022/01/20 09:24:57;;;;;;;8.57;1.27;;;;;;;2.83;84.45;102818.91;5013073;28;20053;-77
2022/01/20 09:27:22;;;;;;;16.60;2.13;;;;;;;2.81;85.22;102808.19;5007962;28;20037;-74
2022/01/20 09:29:48;;;;;;;13.55;2.38;;;;;;;2.80;84.78;102809.09;5013405;28;20029;-75
2022/01/20 09:32:16;;;;;;;7.47;1.55;;;;;;;2.74;84.73;102812.72;5007741;28;20466;-75
2022/01/20 09:34:41;;;;;;;9.98;1.60;;;;;;;2.70;84.77;102813.63;5012750;28;20367;-75
2022/01/20 09:37:07;;;;;;;17.40;2.00;;;;;;;2.66;84.77;102811.91;5026167;28;20063;-77
2022/01/20 09:39:34;;;;;;;8.55;1.80;;;;;;;2.68;84.99;102812.78;5023002;28;20033;-74
2022/01/20 09:41:59;;;;;;;7.93;2.13;;;;;;;2.74;85.38;102799.28;5023110;28;20104;-77
2022/01/20 09:44:25;;;;;;;10.68;2.05;;;;;;;2.84;86.27;102797.38;5016728;28;20132;-75
2022/01/20 09:46:51;;;;;;;8.13;1.73;;;;;;;2.97;86.08;102807.13;5020851;28;20104;-76
2022/01/20 09:49:16;;;;;;;8.88;1.63;;;;;;;3.07;85.98;102807.94;5023105;28;20103;-75
2022/01/20 09:51:43;;;;;;;8.18;1.88;;;;;;;3.11;86.01;102809.69;5008957;28;20057;-74
2022/01/20 09:54:08;;;;;;;7.20;1.75;;;;;;;3.16;85.61;102818.59;5027107;28;20025;-74
2022/01/20 09:56:35;;;;;;;14.93;1.70;;;;;;;3.20;85.58;102827.53;5016497;28;20055;-77
2022/01/20 09:59:00;;;;;;;13.48;1.77;;;;;;;3.16;84.71;102829.34;5023681;28;20528;-74
2022/01/20 10:01:48;;;;;;;12.65;2.17;;;;;;;3.12;85.65;102849.13;5021355;28;20109;-76
2022/01/20 10:04:25;;;;;;;13.45;1.75;;;;;;;3.07;85.14;102859.03;5023289;28;20041;-75
2022/01/20 10:06:57;;;;;;;7.25;2.13;;;;;;;3.06;85.37;102865.31;5018380;28;20375;-75
2022/01/20 10:09:45;;;;;;;12.77;2.10;;;;;;;3.06;86.25;102868.00;5025425;28;20029;-75
2022/01/20 10:12:14;;;;;;;9.63;2.22;;;;;;;3.06;85.41;102860.81;5026090;28;20021;-75
2022/01/20 10:14:49;;;;;;;8.27;1.98;;;;;;;3.10;85.55;102864.38;5016918;28;20116;-74
2022/01/20 10:17:22;;;;;;;9.70;1.60;;;;;;;3.11;84.92;102866.16;5023922;28;20444;-74
2022/01/20 10:19:53;;;;;;;8.32;2.03;;;;;;;3.13;85.50;102860.78;5021470;28;20453;-75
2022/01/20 10:22:24;;;;;;;8.02;1.55;;;;;;;3.13;84.33;102867.06;5026116;28;20034;-75
2022/01/20 10:25:02;;;;;;;14.18;1.90;;;;;;;3.18;84.43;102878.66;5022093;28;20056;-75
2022/01/20 10:27:31;;;;;;;9.13;2.17;;;;;;;3.21;83.79;102867.84;5007251;28;20030;-74
2022/01/20 10:30:05;;;;;;;14.68;2.90;;;;;;;3.25;84.34;102883.06;5020031;28;20033;-74
2022/01/20 10:32:43;;;;;;;11.52;2.88;;;;;;;3.35;83.90;102885.66;5020788;28;20503;-78
2022/01/20 10:35:11;;;;;;;13.50;1.90;;;;;;;3.43;80.52;102878.41;5025118;28;20029;-75
2022/01/20 10:37:52;;;;;;;12.02;2.38;;;;;;;3.50;79.85;102878.34;5025149;28;20040;-75
2022/01/20 10:40:17;;;;;;;14.70;2.53;;;;;;;3.66;77.60;102888.94;5024260;28;20026;-75
2022/01/20 10:42:46;;;;;;;12.13;1.95;;;;;;;3.80;79.27;102890.56;5027048;28;20022;-76
2022/01/20 10:45:20;;;;;;;9.70;2.80;;;;;;;3.99;80.24;102891.25;5015641;28;20044;-74
2022/01/20 10:47:52;;;;;;;3.95;1.60;;;;;;;4.09;79.09;102894.72;5018858;28;20541;-75
2022/01/20 10:50:31;;;;;;;7.75;2.05;;;;;;;4.13;78.10;102895.56;5020458;28;20504;-75
2022/01/20 10:52:57;;;;;;;11.88;2.42;;;;;;;4.09;78.26;102905.47;5024533;28;20035;-75
2022/01/20 10:55:24;;;;;;;15.55;2.10;;;;;;;4.07;75.97;102892.06;5021437;28;20029;-75
2022/01/20 10:57:51;;;;;;;12.05;2.45;;;;;;;4.05;76.10;102892.97;5030694;28;20064;-74
2022/01/20 11:00:19;;;;;;;12.85;2.30;;;;;;;4.04;74.80;102884.00;5015367;28;20394;-75
2022/01/20 11:03:03;;;;;;;13.10;2.03;;;;;;;4.08;74.24;102884.84;5021587;28;20044;-74
2022/01/20 11:05:30;;;;;;;10.63;1.90;;;;;;;4.13;74.05;102877.59;5021688;28;20041;-76
2022/01/20 11:07:55;;;;;;;11.45;2.00;;;;;;;4.14;73.44;102890.16;5030445;28;20399;-76
2022/01/20 11:10:20;;;;;;;11.35;2.95;;;;;;;4.14;74.76;102890.16;5023543;28;20025;-75
2022/01/20 11:12:46;;;;;;;9.18;1.98;;;;;;;4.19;74.54;102892.78;5015378;28;20388;-75
2022/01/20 11:15:15;;;;;;;12.65;2.40;;;;;;;4.22;75.05;102901.72;5020977;28;20029;-76
2022/01/20 11:17:42;;;;;;;9.70;2.13;;;;;;;4.22;75.46;102904.44;5025021;28;20032;-75
2022/01/20 11:20:10;;;;;;;9.52;1.90;;;;;;;4.24;74.29;102902.63;5027529;28;20104;-76
2022/01/20 11:22:36;;;;;;;11.70;2.35;;;;;;;4.27;75.40;102889.09;5028573;28;20100;-75
2022/01/20 11:25:09;;;;;;;12.82;2.25;;;;;;;4.35;77.01;102895.28;5022669;28;20116;-75
2022/01/20 11:27:40;;;;;;;10.63;1.90;;;;;;;4.44;76.17;102893.38;5011633;28;20021;-75
2022/01/20 11:30:26;;;;;;;5.95;1.33;;;;;;;4.50;74.92;102893.28;5026386;28;20635;-76
2022/01/20 11:32:58;;;;;;;12.45;2.00;;;;;;;4.49;75.25;102888.81;5027229;28;20072;-74
2022/01/20 11:35:40;;;;;;;11.52;2.30;;;;;;;4.50;75.85;102887.88;5017681;28;20037;-74
2022/01/20 11:38:07;;;;;;;14.50;2.00;;;;;;;4.51;74.36;102882.47;5025808;28;20033;-75
2022/01/20 11:40:32;;;;;;;14.90;1.92;;;;;;;4.52;74.98;102880.66;5018364;28;20556;-75
2022/01/20 11:43:03;;;;;;;16.35;2.30;;;;;;;4.54;73.78;102881.53;5024425;28;20045;-75
2022/01/20 11:45:33;;;;;;;13.95;2.58;;;;;;;4.53;74.64;102875.25;5013844;28;20030;-78
2022/01/20 11:48:11;;;;;;;13.80;2.30;;;;;;;4.51;74.15;102878.88;5016102;28;20029;-75
2022/01/20 11:50:36;;;;;;;12.68;2.13;;;;;;;4.44;72.32;102878.09;5019843;28;20045;-75
2022/01/20 11:53:11;;;;;;;13.88;1.75;;;;;;;4.39;73.42;102874.56;5011770;28;20029;-75
2022/01/20 11:55:52;;;;;;;10.45;2.40;;;;;;;4.40;73.12;102876.34;5017804;28;20484;-75
2022/01/20 11:58:24;;;;;;;10.63;1.85;;;;;;;4.34;72.27;102873.75;5025211;28;20527;-77
2022/01/20 12:01:04;;;;;;;10.60;1.83;;;;;;;4.34;74.00;102885.41;5021946;28;20096;-76
2022/01/20 12:03:30;;;;;;;16.02;3.25;;;;;;;4.31;74.71;102884.56;5019380;28;20390;-75
2022/01/20 12:06:04;;;;;;;12.75;1.75;;;;;;;4.29;74.62;102886.38;5013069;28;20067;-76
2022/01/20 12:08:30;;;;;;;10.23;2.10;;;;;;;4.27;74.07;102875.63;5026389;28;20226;-76
2022/01/20 12:11:09;;;;;;;16.58;2.20;;;;;;;4.32;74.55;102870.16;5022431;28;20036;-76
2022/01/20 12:13:51;;;;;;;13.65;2.45;;;;;;;4.39;74.70;102866.50;5024821;28;20022;-76
2022/01/20 12:16:21;;;;;;;16.42;1.95;;;;;;;4.57;68.95;102857.25;5016393;28;20026;-76
2022/01/20 12:18:56;;;;;;;8.77;1.80;;;;;;;4.72;70.91;102850.72;5029339;28;20033;-75
2022/01/20 12:21:22;;;;;;;7.45;1.85;;;;;;;4.84;71.85;102851.41;5010044;28;20489;-77
2022/01/20 12:23:48;;;;;;;9.32;1.52;;;;;;;4.82;70.92;102842.44;5021006;28;20022;-75
2022/01/20 12:26:14;;;;;;;16.90;2.35;;;;;;;4.83;72.76;102846.03;5012278;28;20030;-75
2022/01/20 12:28:40;;;;;;;9.13;1.90;;;;;;;4.82;72.66;102852.34;5015617;28;20033;-75
2022/01/20 12:31:08;;;;;;;13.88;2.00;;;;;;;4.79;72.59;102853.28;5016280;28;20484;-75
2022/01/20 12:33:35;;;;;;;13.20;2.63;;;;;;;4.74;72.20;102854.28;5022239;28;20039;-76
2022/01/20 12:36:03;;;;;;;13.50;1.90;;;;;;;4.75;73.12;102861.44;5024940;28;20485;-74
2022/01/20 12:38:35;;;;;;;9.43;1.80;;;;;;;4.71;72.17;102866.00;5009390;28;20017;-76
2022/01/20 12:41:09;;;;;;;8.27;1.50;;;;;;;4.70;71.66;102874.09;5008708;28;20030;-75